7NC9 weather

Spencer Field
Asheboro, North Carolina, United States

Public forecast

Using degrees Fahrenheit for public forecast. Weather courtesy of forecast.io.

METAR (pilot weather report)

Closest report is Asheboro Regional Airport, 4.4 nm (8.2 km) S. Retrieved 2019/07/21 18:25 UTC (0 seconds ago):

KHBI 211825Z AUTO 21010G17KT 10SM CLR 34/19 A3001 RMK AO2 T03420191

TAF (pilot weather forecast)

Closest forecast is Piedmont Triad International Airport, 22.3 nm (41.3 km) N. Retrieved 2019/07/21 18:24 UTC (0 seconds ago):

TAF KGSO 211723Z 2118/2218 25010G15KT P6SM FEW250 FM220000 22007KT P6SM FEW200 FM221500 22008G13KT P6SM FEW250